createdAt,value
2022-11-12T00:03:30.935Z,2.43
2022-11-12T00:08:52.821Z,2.36
2022-11-12T00:14:16.170Z,2.33
2022-11-12T00:19:38.398Z,2.40
2022-11-12T00:25:00.299Z,2.36
2022-11-12T00:30:23.841Z,2.37
2022-11-12T00:35:45.830Z,2.36
2022-11-12T00:41:08.004Z,2.37
2022-11-12T00:46:31.520Z,2.35
2022-11-12T00:51:53.624Z,2.33
2022-11-12T00:57:15.986Z,2.26
2022-11-12T01:02:44.201Z,2.26
2022-11-12T01:08:08.640Z,2.22
2022-11-12T01:13:30.702Z,2.22
2022-11-12T01:18:56.871Z,2.21
2022-11-12T01:24:19.351Z,2.27
2022-11-12T01:29:41.703Z,2.22
2022-11-12T01:35:05.318Z,2.22
2022-11-12T01:40:27.544Z,2.09
2022-11-12T01:45:52.194Z,2.09
2022-11-12T01:51:17.186Z,2.13
2022-11-12T01:56:42.370Z,2.15
2022-11-12T02:02:04.613Z,2.20
2022-11-12T02:07:28.478Z,2.14
2022-11-12T02:13:11.587Z,2.09
2022-11-12T02:18:33.781Z,2.06
2022-11-12T02:24:02.229Z,2.03
2022-11-12T02:29:24.471Z,1.99
2022-11-12T02:34:46.952Z,1.82
2022-11-12T02:40:11.719Z,1.91
2022-11-12T02:45:33.616Z,1.90
2022-11-12T02:50:55.610Z,1.66
2022-11-12T02:56:19.059Z,1.80
2022-11-12T03:01:41.354Z,1.76
2022-11-12T03:07:04.396Z,1.80
2022-11-12T03:12:27.982Z,1.77
2022-11-12T03:17:50.272Z,1.73
2022-11-12T03:23:12.526Z,1.58
2022-11-12T03:28:35.898Z,1.77
2022-11-12T03:33:58.014Z,1.75
2022-11-12T03:39:20.255Z,1.72
2022-11-12T03:44:43.460Z,1.76
2022-11-12T03:50:06.649Z,1.63
2022-11-12T03:55:30.659Z,1.78
2022-11-12T04:00:54.266Z,1.79
2022-11-12T04:06:34.102Z,1.77
2022-11-12T04:12:16.605Z,1.72
2022-11-12T04:17:57.593Z,1.75
2022-11-12T04:23:19.872Z,1.80
2022-11-12T04:29:02.095Z,1.80
2022-11-12T04:34:31.591Z,1.72
2022-11-12T04:39:54.273Z,1.70
2022-11-12T04:45:16.636Z,1.72
2022-11-12T04:50:40.775Z,1.71
2022-11-12T04:56:02.884Z,1.56
2022-11-12T05:01:25.152Z,1.62
2022-11-12T05:06:55.056Z,1.58
2022-11-12T05:12:17.312Z,1.48
2022-11-12T05:17:43.880Z,1.37
2022-11-12T05:23:07.932Z,1.46
2022-11-12T05:28:29.972Z,1.27
2022-11-12T05:33:52.213Z,1.24
2022-11-12T05:39:15.710Z,1.25
2022-11-12T05:44:37.731Z,1.21
2022-11-12T05:49:59.520Z,1.11
2022-11-12T05:55:23.223Z,1.12
2022-11-12T06:00:45.609Z,1.07
2022-11-12T06:06:08.133Z,1.09
2022-11-12T06:11:32.243Z,1.01
2022-11-12T06:16:54.361Z,1.01
2022-11-12T06:22:16.414Z,0.95
2022-11-12T06:27:40.272Z,0.96
2022-11-12T06:33:02.742Z,0.96
2022-11-12T06:38:25.349Z,0.89
2022-11-12T06:43:49.373Z,0.93
2022-11-12T06:49:11.345Z,0.82
2022-11-12T06:54:33.274Z,0.86
2022-11-12T06:59:57.000Z,0.76
2022-11-12T07:05:19.381Z,1.08
2022-11-12T07:10:41.535Z,1.13
2022-11-12T07:16:07.022Z,1.12
2022-11-12T07:21:29.459Z,1.17
2022-11-12T07:26:51.719Z,1.09
2022-11-12T07:32:15.625Z,1.52
2022-11-12T07:37:37.648Z,1.72
2022-11-12T07:43:00.666Z,1.98
2022-11-12T07:48:24.149Z,2.11
2022-11-12T07:53:47.216Z,2.40
2022-11-12T07:59:09.675Z,2.51
2022-11-12T08:04:33.321Z,2.67
2022-11-12T08:09:55.643Z,2.83
2022-11-12T08:15:17.841Z,3.02
2022-11-12T08:20:41.112Z,3.06
2022-11-12T08:26:04.947Z,3.46
2022-11-12T08:31:26.960Z,3.71
2022-11-12T08:36:50.778Z,4.11
2022-11-12T08:42:12.831Z,4.19
2022-11-12T08:47:34.933Z,4.70
2022-11-12T08:53:02.832Z,5.12
2022-11-12T08:58:26.136Z,5.31
2022-11-12T09:03:50.633Z,5.81
2022-11-12T09:09:13.958Z,6.22
2022-11-12T09:14:36.387Z,6.47
2022-11-12T09:19:58.598Z,6.73
2022-11-12T09:25:22.323Z,7.40
2022-11-12T09:30:46.581Z,8.17
2022-11-12T09:36:09.552Z,9.17
2022-11-12T09:41:36.575Z,9.32
2022-11-12T09:47:04.107Z,9.65
2022-11-12T09:52:29.976Z,9.87
2022-11-12T09:57:53.795Z,10.49
2022-11-12T10:03:28.413Z,10.30
2022-11-12T10:08:54.564Z,10.23
2022-11-12T10:14:29.163Z,10.14
2022-11-12T10:20:02.188Z,10.02
2022-11-12T10:25:26.351Z,10.29
2022-11-12T10:30:49.783Z,10.37
2022-11-12T10:36:21.183Z,10.51
2022-11-12T10:41:43.793Z,10.78
2022-11-12T10:47:24.584Z,11.00
2022-11-12T10:52:58.269Z,11.19
2022-11-12T10:58:23.480Z,11.60
2022-11-12T11:03:52.289Z,12.14
2022-11-12T11:09:20.718Z,12.71
2022-11-12T11:14:44.526Z,13.54
2022-11-12T11:20:18.843Z,13.92
2022-11-12T11:25:41.076Z,14.25
2022-11-12T11:31:11.866Z,14.85
2022-11-12T11:36:47.673Z,14.43
2022-11-12T11:42:24.337Z,14.29
2022-11-12T11:48:01.547Z,14.37
2022-11-12T11:53:31.587Z,14.65
2022-11-12T11:59:14.156Z,14.74
2022-11-12T12:04:47.693Z,14.79
2022-11-12T12:10:46.285Z,14.84
2022-11-12T12:16:36.635Z,14.91
2022-11-12T12:22:00.973Z,14.87
2022-11-12T12:27:30.318Z,14.78
2022-11-12T12:32:58.208Z,14.60
2022-11-12T12:38:26.908Z,14.45
2022-11-12T12:43:55.664Z,14.36
2022-11-12T12:49:22.766Z,14.24
2022-11-12T12:54:58.517Z,14.24
2022-11-12T13:00:33.516Z,13.96
2022-11-12T13:06:08.071Z,14.09
2022-11-12T13:12:09.307Z,13.85
2022-11-12T13:17:50.368Z,13.76
2022-11-12T13:24:04.387Z,13.69
2022-11-12T13:29:42.024Z,13.70
2022-11-12T13:35:34.835Z,13.56
2022-11-12T13:41:07.752Z,13.59
2022-11-12T13:46:34.340Z,13.52
2022-11-12T13:52:00.797Z,13.42
2022-11-12T13:57:28.991Z,13.36
2022-11-12T14:02:55.291Z,13.21
2022-11-12T14:08:32.199Z,13.08
2022-11-12T14:14:06.935Z,12.93
2022-11-12T14:19:51.150Z,12.76
2022-11-12T14:25:19.818Z,12.51
2022-11-12T14:30:45.741Z,12.40
2022-11-12T14:36:14.229Z,12.20
2022-11-12T14:41:41.375Z,11.88
2022-11-12T14:47:03.892Z,11.50
2022-11-12T14:52:31.484Z,11.37
2022-11-12T14:57:58.924Z,11.05
2022-11-12T15:03:24.414Z,10.81
2022-11-12T15:08:58.527Z,10.43
2022-11-12T15:14:25.510Z,10.22
2022-11-12T15:19:48.034Z,9.92
2022-11-12T15:25:21.209Z,9.62
2022-11-12T15:31:02.107Z,9.28
2022-11-12T15:36:25.789Z,8.81
2022-11-12T15:41:48.380Z,8.70
2022-11-12T15:47:20.635Z,8.39
2022-11-12T15:52:43.143Z,8.22
2022-11-12T15:58:06.753Z,7.98
2022-11-12T16:03:31.378Z,7.70
2022-11-12T16:08:55.477Z,7.51
2022-11-12T16:14:19.815Z,7.25
2022-11-12T16:19:47.072Z,6.98
2022-11-12T16:25:10.418Z,6.95
2022-11-12T16:30:34.342Z,6.78
2022-11-12T16:35:57.800Z,6.65
2022-11-12T16:41:20.035Z,6.45
2022-11-12T16:46:43.860Z,6.29
2022-11-12T16:52:07.584Z,6.26
2022-11-12T16:57:29.675Z,5.96
2022-11-12T17:02:53.549Z,5.90
2022-11-12T17:08:17.517Z,5.85
2022-11-12T17:13:40.317Z,5.67
2022-11-12T17:19:03.110Z,5.45
2022-11-12T17:24:29.039Z,5.38
2022-11-12T17:29:51.606Z,5.19
2022-11-12T17:35:14.060Z,5.16
2022-11-12T17:40:37.856Z,5.03
2022-11-12T17:46:00.398Z,4.91
2022-11-12T17:51:24.583Z,4.72
2022-11-12T17:56:47.943Z,4.70
2022-11-12T18:02:12.815Z,4.58
2022-11-12T18:07:35.062Z,4.51
2022-11-12T18:12:59.175Z,4.44
2022-11-12T18:18:20.976Z,4.36
2022-11-12T18:23:44.719Z,4.29
2022-11-12T18:29:08.508Z,4.21
2022-11-12T18:34:30.424Z,4.15
2022-11-12T18:39:52.850Z,4.12
2022-11-12T18:45:16.613Z,4.04
2022-11-12T18:50:38.943Z,4.07
2022-11-12T18:56:02.999Z,3.91
2022-11-12T19:01:26.583Z,3.82
2022-11-12T19:06:48.605Z,3.74
2022-11-12T19:12:11.539Z,3.70
2022-11-12T19:17:35.106Z,3.54
2022-11-12T19:22:57.945Z,3.50
2022-11-12T19:28:20.368Z,3.43
2022-11-12T19:33:47.397Z,3.35
2022-11-12T19:39:09.683Z,3.07
2022-11-12T19:44:32.100Z,3.19
2022-11-12T19:49:55.507Z,3.19
2022-11-12T19:55:17.786Z,3.08
2022-11-12T20:00:40.571Z,3.06
2022-11-12T20:06:05.638Z,3.01
2022-11-12T20:11:28.029Z,2.97
2022-11-12T20:16:51.710Z,2.94
2022-11-12T20:22:16.414Z,2.83
2022-11-12T20:27:38.810Z,2.84
2022-11-12T20:33:01.248Z,2.76
2022-11-12T20:38:25.553Z,2.67
2022-11-12T20:43:48.823Z,2.62
2022-11-12T20:49:11.794Z,2.54
2022-11-12T20:54:35.301Z,2.41
2022-11-12T20:59:57.430Z,2.53
2022-11-12T21:05:19.713Z,2.45
2022-11-12T21:10:43.163Z,2.35
2022-11-12T21:16:06.902Z,2.26
2022-11-12T21:21:31.662Z,2.26
2022-11-12T21:26:55.588Z,2.20
2022-11-12T21:32:17.607Z,2.20
2022-11-12T21:37:39.543Z,2.20
2022-11-12T21:43:02.833Z,2.08
2022-11-12T21:48:25.339Z,1.96
2022-11-12T21:53:47.706Z,2.00
2022-11-12T21:59:11.086Z,1.91
2022-11-12T22:04:33.346Z,1.91
2022-11-12T22:09:57.028Z,1.81
2022-11-12T22:15:24.290Z,1.86
2022-11-12T22:20:57.260Z,1.69
2022-11-12T22:26:22.112Z,1.75
2022-11-12T22:31:45.965Z,1.71
2022-11-12T22:37:08.100Z,1.70
2022-11-12T22:42:30.126Z,1.56
2022-11-12T22:47:53.811Z,1.57
2022-11-12T22:53:16.207Z,1.48
2022-11-12T22:58:39.302Z,1.44
2022-11-12T23:04:04.951Z,1.40
2022-11-12T23:09:27.737Z,1.36
2022-11-12T23:14:49.602Z,1.28
2022-11-12T23:20:13.950Z,1.25
2022-11-12T23:25:37.043Z,1.13
2022-11-12T23:30:59.599Z,1.19
2022-11-12T23:36:24.648Z,1.11
2022-11-12T23:41:47.234Z,1.06
2022-11-12T23:47:09.957Z,1.00
2022-11-12T23:52:33.552Z,0.96
2022-11-12T23:57:56.023Z,0.89
